Terminal Aerodrome Forecast
Issued by NWS

Home | Current Version | Previous Version | Text Only | Print | Product List | Glossary On
Versions: 1 2 3 4 5 6 7 8 9 10 11 12
000
FTUS44 KEPZ 151128
TAFTCS
TAF
KTCS 151128Z 1512/1612 33007KT P6SM SKC
     FM151700 16005KT P6SM SKC
     FM160100 33006KT P6SM SKC=

USA.gov is the U.S. government's official web portal to all federal, state and local government web resources and services.